Tomball, Texas
Current Conditions -  °F | °C
As of 6:53 PM on Sunday 23 Nov 2014 (Local Time) from KDWH Reporting Station
Clear Clear  
Wind Chill: 69°   Ceiling: Unl
Heat Index: 69°   Visibility: 10mi
Dew Point: 53°   Wind: 6mph
Humidity: 57%   Direction: 220°SW
Pressure: 29.6"   Gusts: NA
Location:  30.1°N, 95.62°W
Report Text: KDWH 240053Z AUTO 22005KT 10SM CLR 21/12 A2960 RMK AO2 SLP020 T02060117 TSNO
Loading
Personal Weather Stations






























Interactive Weather Map New forecast layout! Learn more

10-Day Weather Forecast

Advertisements
Track Severe Weather on mobile